MET'MAP v2.0
soon released !

Expected late october,
this new version will be
more efficient, smarter,
and hosted on a brand new
server x3 powerfull...
...and still free !


Not compatible ?
Try the mobile version !

LOG IN : | Subscribe | Disclaimer | Who is Orbifly ? |
ICAO code :

TAF - LFXA Amberieu - 30 Oct 2020 06:26 UTC
Data Sources :     NOAA   


- Airport Elevation : 823 ft
- No reported NOTAMs.


LFXA - Amberieu

Latest METAR recorded : 0000/00/00 L:IM TAF AMD LIMG 290802Z 2909/2918 VRB05KT 9999 SCT020 BECMG 2910/2912 07010KT PROB40 TEMPO 2912/2918 SHRA BECMG 2916/2918 VRB05KT
NO TAF


MET'MAP, your aeronautical weather chart ! - Copyright ORBIFLY December 2007

Programming & Development : Alexandra Zaïnal
Co-Developer : Marc-Olivier Méhu
Technical & hardware support : Manuel Goepfert
Concept & Financing : Baudouin d'Aumeries